LAKE NATOMA (NIMBUS DAM) (NAT)

Elevation: 132' · AMERICAN R basin · Operator: US Bureau of Reclamation

Provisional data, subject to change.
Query executed Tuesday at 11:50:41

Select a sensor type for a plot of data.
Note: Reservoir Flows are daily averages.

Earlier

Date RES ELE    STORAGE    RES CHG    OUTFLOW    INFLOW    SPILL    DIS PWR   
 FEET   AF   AF   CFS   CFS   CFS   CFS  
11/07/2016 124.25 8386 70 1272 1308 659 512
11/08/2016 124.37 8446 60 1253 1284 877 291
11/09/2016 124.19 8356 -90 1256 1211 878 293
11/10/2016 124.06 8291 -65 1266 1233 634 547
11/11/2016 124.05 8286 -5 1306 1304 0 1212
11/12/2016 123.94 8233 -53 1322 1295 0 1217
11/13/2016 124.03 8276 43 1321 1343 0 1216
11/14/2016 124.05 8286 10 1309 1315 0 1201
11/15/2016 124.13 8326 40 1309 1330 0 1194
11/16/2016 124.41 8466 140 1306 1378 0 1191
11/17/2016 124.20 8361 -105 1318 1266 0 1203
11/18/2016 123.84 8186 -175 1311 1224 0 1209
11/19/2016 123.71 8125 -61 1292 1261 0 1207
11/20/2016 124.00 8261 136 1294 1372 0 1209
11/21/2016 123.97 8247 -14 1262 1255 0 1177
11/22/2016 124.53 8526 279 1234 1376 0 1149
11/23/2016 124.19 8356 -170 1250 1164 0 1165
11/24/2016 123.96 8242 -114 1256 1200 0 1171
11/25/2016 124.15 8336 94 1254 1301 0 1169
11/26/2016 123.94 8233 -103 1254 1202 0 1169
11/27/2016 124.23 8376 143 1270 1342 0 1165
11/28/2016 124.25 8386 10 1269 1274 0 1164
11/29/2016 124.18 8351 -35 1261 1243 0 1156
11/30/2016 123.41 7984 -367 1206 1021 0 1101
12/01/2016 123.06 7819 -165 1199 1117 0 1094
12/02/2016 123.04 7810 -9 1258 1255 0 1153
12/03/2016 122.67 7643 -167 1399 1316 0 1294
12/04/2016 121.92 7307 -336 1401 1232 0 1296
12/05/2016 122.15 7409 102 1394 1445 0 1289
12/06/2016 -- -- -- -- -- -- --

Later | Latest

Warning! This data is preliminary and subject to revision.

Show NAT Map | Plot NAT Data | 1 Month NAT Data | Real-Time NAT Data | NAT Info